Time;durP1;ratioP1;P1;durP2;ratioP2;P2;SDS_P1;SDS_P2;PMS_P1;PMS_P2;Temp;Humidity;BMP_temperature;BMP_pressure;BME280_temperature;BME280_humidity;BME280_pressure;Samples;Min_cycle;Max_cycle;Signal;HPM_P1;HPM_P2
2022/08/11 00:00:11;;;;;;;4.32;3.92;;;;;;;22.33;74.34;98217.69;4995455;28;20187;-60
2022/08/11 00:02:40;;;;;;;5.70;4.10;;;;;;;22.38;74.41;98210.84;4995443;28;20178;-60
2022/08/11 00:05:23;;;;;;;4.63;4.30;;;;;;;22.33;74.54;98209.78;4995606;28;20221;-61
2022/08/11 00:07:51;;;;;;;6.60;4.25;;;;;;;22.33;74.56;98207.16;4995505;28;20170;-61
2022/08/11 00:10:25;;;;;;;7.15;4.55;;;;;;;22.30;74.66;98210.13;4995333;28;20175;-61
2022/08/11 00:12:57;;;;;;;4.82;4.43;;;;;;;22.13;75.77;98206.88;4995529;28;20175;-60
2022/08/11 00:15:25;;;;;;;5.13;4.65;;;;;;;22.10;76.26;98206.44;4995246;28;20645;-60
2022/08/11 00:17:58;;;;;;;4.88;4.47;;;;;;;22.12;76.10;98212.31;4995096;28;20218;-60
2022/08/11 00:20:29;;;;;;;5.25;4.40;;;;;;;22.10;76.15;98217.81;4993939;28;20560;-61
2022/08/11 00:23:03;;;;;;;4.82;4.53;;;;;;;22.06;76.10;98219.16;4995208;28;20162;-60
2022/08/11 00:25:28;;;;;;;4.35;3.95;;;;;;;22.06;76.20;98216.50;4995346;28;20251;-60
2022/08/11 00:27:54;;;;;;;4.47;4.18;;;;;;;22.00;76.22;98208.50;4995170;28;20250;-60
2022/08/11 00:30:20;;;;;;;4.50;3.90;;;;;;;21.93;76.41;98218.97;4994868;28;20221;-60
2022/08/11 00:32:54;;;;;;;6.38;4.47;;;;;;;21.91;76.52;98215.69;4994856;28;20218;-60
2022/08/11 00:35:25;;;;;;;5.93;4.75;;;;;;;21.99;76.19;98205.06;4994849;28;20210;-60
2022/08/11 00:37:52;;;;;;;7.30;4.90;;;;;;;21.97;76.29;98200.97;4993525;28;20570;-60
2022/08/11 00:40:30;;;;;;;4.55;4.25;;;;;;;21.91;76.37;98201.72;4994760;28;20171;-61
2022/08/11 00:43:08;;;;;;;6.30;4.10;;;;;;;21.92;76.46;98208.59;4994502;28;20182;-60
2022/08/11 00:45:51;;;;;;;4.13;3.72;;;;;;;21.84;76.80;98216.56;4994249;28;20567;-62
2022/08/11 00:48:35;;;;;;;4.60;4.18;;;;;;;21.94;76.85;98212.69;4994894;28;20155;-61
2022/08/11 00:51:35;;;;;;;5.07;4.60;;;;;;;21.98;76.15;98207.88;4995038;28;20207;-61
2022/08/11 00:54:25;;;;;;;6.97;5.15;;;;;;;21.95;76.43;98211.69;4971472;28;20191;-61
2022/08/11 00:57:28;;;;;;;4.75;4.35;;;;;;;21.95;76.47;98218.75;5009475;28;20269;-61
2022/08/11 01:00:19;;;;;;;4.82;4.40;;;;;;;21.78;77.03;98209.38;4994406;28;20222;-61
2022/08/11 01:03:05;;;;;;;4.50;4.25;;;;;;;21.86;76.85;98212.75;4994401;28;20170;-61
2022/08/11 01:05:43;;;;;;;4.85;4.25;;;;;;;21.91;76.18;98217.50;4994281;28;20178;-61
2022/08/11 01:08:36;;;;;;;4.57;4.28;;;;;;;21.94;76.06;98217.97;4994549;28;20195;-61
2022/08/11 01:11:19;;;;;;;4.85;4.43;;;;;;;21.91;75.75;98205.13;4994136;28;20179;-61
2022/08/11 01:14:06;;;;;;;4.35;4.00;;;;;;;21.84;76.07;98208.66;4994227;28;20545;-61
2022/08/11 01:17:09;;;;;;;5.05;4.55;;;;;;;21.88;76.06;98202.88;4994124;28;20171;-61
2022/08/11 01:19:53;;;;;;;4.45;4.15;;;;;;;21.85;75.71;98203.22;4993942;28;20182;-61
2022/08/11 01:23:06;;;;;;;4.50;4.20;;;;;;;21.91;75.39;98196.44;4993938;28;20174;-61
2022/08/11 01:25:49;;;;;;;5.85;4.45;;;;;;;21.95;75.08;98187.97;4948815;28;20283;-61
2022/08/11 01:28:20;;;;;;;4.35;3.95;;;;;;;22.03;74.62;98189.72;4994161;28;20639;-61
2022/08/11 01:31:04;;;;;;;4.30;4.00;;;;;;;21.99;74.27;98184.00;4993946;28;20190;-61
2022/08/11 01:34:11;;;;;;;6.55;4.40;;;;;;;21.87;75.16;98179.34;4993561;28;20202;-61
2022/08/11 01:37:04;;;;;;;4.60;4.20;;;;;;;21.90;75.63;98186.88;4973611;28;20270;-61
2022/08/11 01:40:01;;;;;;;4.30;3.88;;;;;;;21.85;76.00;98187.41;5008755;28;20182;-60
2022/08/11 01:45:41;;;;;;;7.50;5.03;;;;;;;21.92;75.99;98187.53;4993601;28;20272;-59
2022/08/11 01:48:36;;;;;;;5.55;4.15;;;;;;;21.93;75.68;98191.78;4993806;28;20177;-59
2022/08/11 01:51:19;;;;;;;4.97;4.53;;;;;;;21.92;75.75;98192.78;4983413;28;20195;-60
2022/08/11 01:54:18;;;;;;;5.68;4.38;;;;;;;21.84;75.82;98201.59;4993434;28;20168;-60
2022/08/11 01:57:03;;;;;;;4.55;4.10;;;;;;;21.85;75.79;98194.53;4965451;28;20202;-60
2022/08/11 01:59:35;;;;;;;4.47;4.13;;;;;;;21.88;75.36;98192.34;4992053;28;20597;-60
2022/08/11 02:02:46;;;;;;;4.47;4.18;;;;;;;21.86;75.59;98190.88;4993492;28;20760;-60
2022/08/11 02:05:22;;;;;;;4.53;4.20;;;;;;;21.80;75.35;98186.34;4993028;28;20218;-60
2022/08/11 02:08:09;;;;;;;4.68;4.28;;;;;;;21.74;76.24;98187.06;4993396;28;20258;-60
2022/08/11 02:13:46;;;;;;;5.35;4.40;;;;;;;21.55;76.74;98183.09;4993488;28;20170;-60
2022/08/11 02:16:47;;;;;;;4.90;4.50;;;;;;;21.49;77.40;98182.97;4993328;28;20552;-61
2022/08/11 02:25:28;;;;;;;5.82;4.65;;;;;;;21.47;77.60;98175.28;4993208;28;20170;-60
2022/08/11 02:28:09;;;;;;;4.55;4.15;;;;;;;21.54;78.04;98183.25;4992944;28;20160;-60
2022/08/11 02:33:21;;;;;;;6.53;4.47;;;;;;;21.49;78.01;98177.72;4992856;28;20628;-60
2022/08/11 02:33:50;;;;;;;4.93;4.50;;;;;;;21.55;77.82;98179.63;4992476;28;20322;-60
2022/08/11 02:36:21;;;;;;;4.72;4.40;;;;;;;21.57;77.82;98181.09;4993020;28;20167;-60
2022/08/11 02:39:06;;;;;;;4.47;3.97;;;;;;;21.60;77.31;98179.91;4992985;28;20202;-60
2022/08/11 02:44:48;;;;;;;4.75;4.35;;;;;;;21.60;76.79;98177.28;4992960;28;20221;-60
2022/08/11 02:47:40;;;;;;;4.72;4.40;;;;;;;21.61;76.84;98182.38;4993093;28;20159;-60
2022/08/11 02:50:21;;;;;;;4.90;4.50;;;;;;;21.65;76.63;98181.03;5007781;28;20178;-62
2022/08/11 02:52:58;;;;;;;4.68;3.92;;;;;;;21.77;76.13;98176.97;4992795;28;20198;-61
2022/08/11 02:55:47;;;;;;;5.53;4.07;;;;;;;21.90;75.33;98182.44;4992858;28;20173;-60
2022/08/11 02:58:28;;;;;;;5.00;4.60;;;;;;;21.89;74.91;98172.06;4984381;28;20219;-60
2022/08/11 03:01:17;;;;;;;5.25;4.85;;;;;;;21.94;74.59;98185.53;4992854;28;20194;-60
2022/08/11 03:03:51;;;;;;;4.75;4.35;;;;;;;22.01;74.06;98184.63;4992428;28;20594;-60
2022/08/11 03:06:30;;;;;;;5.70;4.43;;;;;;;22.10;73.44;98186.19;4992443;28;20643;-60
2022/08/11 03:09:23;;;;;;;4.70;4.30;;;;;;;22.02;73.71;98193.34;4996420;28;20167;-61
2022/08/11 03:18:33;;;;;;;7.88;4.28;;;;;;;22.16;73.05;98192.53;4996342;28;20202;-60
2022/08/11 03:21:01;;;;;;;5.75;4.13;;;;;;;22.07;73.73;98196.22;4996756;28;20235;-61
2022/08/11 03:23:47;;;;;;;6.40;4.20;;;;;;;22.09;73.94;98188.97;4996213;28;20190;-60
2022/08/11 03:26:36;;;;;;;4.80;4.15;;;;;;;22.16;73.22;98196.00;4996267;28;20641;-60
2022/08/11 03:29:28;;;;;;;4.70;4.13;;;;;;;22.14;73.53;98197.16;4996356;28;20247;-61
2022/08/11 03:32:12;;;;;;;5.03;4.55;;;;;;;22.08;73.96;98200.53;4996087;28;20633;-60
2022/08/11 03:34:40;;;;;;;5.28;4.78;;;;;;;21.87;75.09;98195.16;4995828;28;20231;-61
2022/08/11 03:37:47;;;;;;;5.00;4.63;;;;;;;21.90;75.19;98192.13;4995883;28;20199;-60
2022/08/11 03:40:12;;;;;;;4.32;3.97;;;;;;;21.80;75.86;98200.31;4995729;28;20198;-62
2022/08/11 03:43:28;;;;;;;4.15;3.83;;;;;;;21.73;76.87;98198.59;4996088;28;20202;-60
2022/08/11 03:46:04;;;;;;;5.10;4.65;;;;;;;21.68;76.45;98185.16;4970670;28;20191;-60
2022/08/11 03:48:56;;;;;;;5.05;4.65;;;;;;;21.59;77.40;98194.06;4995850;28;20159;-62
2022/08/11 03:51:28;;;;;;;5.47;4.55;;;;;;;21.66;77.18;98200.25;4995659;28;20644;-62
2022/08/11 03:54:06;;;;;;;4.85;4.43;;;;;;;21.75;76.38;98196.59;4995625;28;20534;-60
2022/08/11 03:57:22;;;;;;;4.20;3.83;;;;;;;21.77;76.34;98199.84;4995608;28;20159;-60
2022/08/11 04:00:10;;;;;;;4.85;4.22;;;;;;;21.76;76.34;98203.50;4970539;28;20201;-60
2022/08/11 04:02:54;;;;;;;5.32;4.28;;;;;;;21.74;76.74;98200.22;4995776;28;20544;-60
2022/08/11 04:05:34;;;;;;;4.93;4.53;;;;;;;21.70;77.38;98206.84;4995710;28;20158;-61
2022/08/11 04:08:08;;;;;;;5.22;4.65;;;;;;;21.69;77.51;98202.56;4995586;28;20162;-62
2022/08/11 04:10:46;;;;;;;5.10;4.65;;;;;;;21.52;78.09;98206.31;4995475;28;20185;-62
2022/08/11 04:13:45;;;;;;;5.20;4.70;;;;;;;21.53;78.10;98202.69;4995540;28;20163;-61
2022/08/11 04:16:41;;;;;;;5.72;4.50;;;;;;;21.56;77.80;98199.72;4995526;28;20246;-61
2022/08/11 04:19:43;;;;;;;4.80;4.50;;;;;;;21.62;77.75;98207.69;4995044;28;20179;-62
2022/08/11 04:22:33;;;;;;;4.57;4.18;;;;;;;21.67;77.31;98209.81;4995026;28;20669;-61
2022/08/11 04:25:30;;;;;;;4.50;4.10;;;;;;;21.71;77.14;98214.56;4994998;28;20186;-61
2022/08/11 04:28:04;;;;;;;4.95;4.40;;;;;;;21.72;77.22;98218.00;4995618;28;20624;-61
2022/08/11 04:31:00;;;;;;;4.57;4.20;;;;;;;21.77;77.10;98218.28;4995117;28;20659;-62
2022/08/11 04:33:37;;;;;;;4.93;4.45;;;;;;;21.71;77.28;98217.22;4994889;28;20608;-62
2022/08/11 04:36:09;;;;;;;4.70;4.30;;;;;;;21.75;77.12;98210.59;4995212;28;20230;-62
2022/08/11 04:38:47;;;;;;;4.60;4.30;;;;;;;21.78;77.47;98212.84;4994674;28;20238;-62
2022/08/11 04:41:26;;;;;;;4.35;4.05;;;;;;;21.80;77.67;98220.59;4994880;28;20163;-61
2022/08/11 04:44:10;;;;;;;5.05;4.55;;;;;;;21.66;78.13;98211.63;4994983;28;20287;-61
2022/08/11 05:01:39;;;;;;;4.90;4.50;;;;;;;21.67;78.46;98213.28;5009844;28;20633;-62
2022/08/11 05:02:49;;;;;;;4.32;4.03;;;;;;;21.79;78.62;98209.22;4994701;28;20170;-62
2022/08/11 05:05:30;;;;;;;5.18;4.78;;;;;;;21.77;78.99;98213.03;4994498;28;20165;-61
2022/08/11 05:08:42;;;;;;;9.68;4.78;;;;;;;21.78;78.71;98209.38;4994317;28;20152;-62
2022/08/11 05:11:26;;;;;;;4.97;4.60;;;;;;;21.92;78.31;98217.31;4975342;28;20656;-62
2022/08/11 05:37:07;;;;;;;5.15;4.50;;;;;;;22.24;76.99;98216.13;4994019;28;20392;-61
2022/08/11 05:56:57;;;;;;;4.60;4.30;;;;;;;22.57;75.82;98220.06;4993588;28;20166;-61
2022/08/11 05:59:24;;;;;;;5.03;4.47;;;;;;;22.63;75.66;98225.41;4993659;28;20186;-61
2022/08/11 06:01:51;;;;;;;4.57;4.18;;;;;;;22.65;75.29;98227.84;4992033;28;20183;-61
2022/08/11 06:04:21;;;;;;;4.80;4.43;;;;;;;22.80;74.52;98231.28;4993439;28;20179;-61
2022/08/11 06:06:55;;;;;;;5.38;4.88;;;;;;;22.70;75.21;98231.59;4993574;28;20262;-61
2022/08/11 06:09:46;;;;;;;5.03;4.35;;;;;;;22.75;75.23;98231.84;4993174;28;20167;-61
2022/08/11 06:12:21;;;;;;;6.15;4.40;;;;;;;22.87;74.97;98227.72;4992738;28;20198;-61
2022/08/11 06:14:53;;;;;;;5.93;4.68;;;;;;;22.84;74.64;98225.44;4993119;28;20531;-61
2022/08/11 06:17:30;;;;;;;5.15;4.65;;;;;;;22.93;74.83;98241.97;4993230;28;20614;-61
2022/08/11 06:20:05;;;;;;;5.35;4.75;;;;;;;22.97;74.36;98233.50;4993444;28;20591;-61
2022/08/11 06:22:32;;;;;;;5.15;4.70;;;;;;;22.91;74.44;98233.44;4991670;28;20237;-61
2022/08/11 06:25:00;;;;;;;5.03;4.63;;;;;;;23.04;73.55;98239.69;4991949;28;20273;-61
2022/08/11 06:27:29;;;;;;;4.60;4.03;;;;;;;23.06;73.32;98236.84;4992911;28;20647;-62
2022/08/11 06:29:55;;;;;;;5.32;4.53;;;;;;;23.03;73.86;98237.22;4992760;28;20183;-62
2022/08/11 06:32:34;;;;;;;8.45;4.75;;;;;;;23.00;74.24;98227.03;4992673;28;20234;-61
2022/08/11 06:35:03;;;;;;;5.60;4.63;;;;;;;23.15;73.75;98230.44;4992911;28;20163;-61
2022/08/11 06:38:16;;;;;;;5.63;4.90;;;;;;;23.20;73.59;98222.81;4992967;28;20229;-61
2022/08/11 06:43:51;;;;;;;4.97;4.18;;;;;;;23.23;73.80;98231.19;4992404;28;20198;-61
2022/08/11 06:46:40;;;;;;;6.28;4.47;;;;;;;23.30;72.89;98232.03;4992778;28;20167;-62
2022/08/11 06:52:00;;;;;;;7.88;4.65;;;;;;;23.38;73.61;98234.59;4993192;28;20233;-60
2022/08/11 06:54:30;;;;;;;5.85;4.45;;;;;;;23.44;72.90;98243.56;4992853;28;20163;-60
2022/08/11 07:02:33;;;;;;;4.53;4.22;;;;;;;23.54;72.15;98236.94;4993012;28;20178;-62
2022/08/11 07:05:02;;;;;;;5.50;5.00;;;;;;;23.49;72.25;98243.81;4992696;28;20160;-60
2022/08/11 07:16:39;;;;;;;5.05;4.40;;;;;;;23.86;70.76;98237.19;4992440;28;20174;-62
2022/08/11 07:30:39;;;;;;;6.63;4.93;;;;;;;24.58;66.85;98243.81;4989564;28;20198;-61
2022/08/11 07:33:06;;;;;;;5.82;5.20;;;;;;;24.73;67.08;98241.00;4992302;28;20221;-61
2022/08/11 07:35:35;;;;;;;6.20;5.22;;;;;;;24.84;66.36;98240.44;4992264;28;20182;-61
2022/08/11 07:38:42;;;;;;;6.72;5.40;;;;;;;25.01;66.19;98239.88;4992231;28;20203;-61
2022/08/11 07:41:12;;;;;;;5.80;5.20;;;;;;;25.20;65.86;98233.78;4992446;28;20664;-62
2022/08/11 07:43:43;;;;;;;7.63;5.55;;;;;;;25.34;65.65;98246.09;4992162;28;20167;-61
2022/08/11 07:54:26;;;;;;;6.00;5.35;;;;;;;25.80;63.62;98235.50;4995317;28;20166;-61
2022/08/11 07:56:53;;;;;;;6.13;5.40;;;;;;;25.81;63.33;98240.59;4995582;28;20572;-61
2022/08/11 08:18:35;;;;;;;7.47;5.95;;;;;;;26.58;58.67;98228.25;4995176;28;20639;-62
2022/08/11 08:21:13;;;;;;;5.53;5.10;;;;;;;26.55;59.34;98234.00;4995216;28;20202;-61
2022/08/11 08:23:41;;;;;;;8.20;5.25;;;;;;;26.59;58.93;98232.53;4995124;28;20182;-62
2022/08/11 08:30:46;;;;;;;10.15;6.10;;;;;;;26.79;59.42;98225.31;4974873;28;20191;-62
2022/08/11 08:31:47;;;;;;;7.70;5.28;;;;;;;26.94;57.03;98209.91;4994991;28;20175;-61
2022/08/11 08:34:14;;;;;;;8.93;6.00;;;;;;;27.08;56.88;98214.13;4994760;28;20218;-61
2022/08/11 08:36:43;;;;;;;10.35;5.78;;;;;;;27.10;57.19;98212.06;4994885;28;20218;-62
2022/08/11 08:39:11;;;;;;;6.28;5.10;;;;;;;27.31;55.93;98224.22;4994812;28;20249;-61
2022/08/11 08:41:38;;;;;;;14.10;5.43;;;;;;;27.36;54.51;98209.28;4994835;28;20252;-61
2022/08/11 08:44:08;;;;;;;6.80;5.80;;;;;;;27.51;54.78;98212.41;4993533;28;20660;-62
2022/08/11 08:46:42;;;;;;;5.85;5.30;;;;;;;27.63;54.03;98218.66;4994872;28;20160;-62
2022/08/11 08:49:10;;;;;;;6.88;4.70;;;;;;;27.66;54.10;98210.25;4994899;28;20245;-61
2022/08/11 08:51:39;;;;;;;6.47;5.15;;;;;;;27.67;54.29;98211.88;4994590;28;20183;-62
2022/08/11 08:54:09;;;;;;;6.95;5.38;;;;;;;27.69;54.66;98209.00;4994549;28;20720;-62
2022/08/11 08:56:38;;;;;;;5.68;4.88;;;;;;;27.82;54.26;98209.72;4994854;28;20167;-63
2022/08/11 08:59:05;;;;;;;8.32;5.53;;;;;;;27.90;53.88;98203.31;4994380;28;20586;-61
2022/08/11 09:01:39;;;;;;;8.13;5.72;;;;;;;28.00;53.67;98201.78;4994488;28;20179;-61
2022/08/11 09:04:09;;;;;;;6.85;6.03;;;;;;;28.10;53.44;98209.25;4994355;28;20573;-61
2022/08/11 09:06:41;;;;;;;7.45;5.57;;;;;;;28.10;53.09;98212.72;4993562;28;20662;-62
2022/08/11 09:09:08;;;;;;;8.45;5.95;;;;;;;28.02;53.04;98207.69;4994623;28;20167;-62
2022/08/11 09:11:54;;;;;;;7.32;5.70;;;;;;;28.13;52.56;98191.00;4994294;28;20260;-62
2022/08/11 09:14:19;;;;;;;8.23;5.57;;;;;;;28.27;52.55;98191.69;4994467;28;20206;-61
2022/08/11 09:16:45;;;;;;;7.82;4.80;;;;;;;28.34;51.57;98193.19;4994147;28;20641;-61
2022/08/11 09:19:16;;;;;;;10.77;5.60;;;;;;;28.40;52.08;98195.00;4992715;28;20218;-62
2022/08/11 09:21:44;;;;;;;14.93;5.97;;;;;;;28.49;52.02;98193.69;4994261;28;20520;-62
2022/08/11 09:26:58;;;;;;;18.85;5.13;;;;;;;28.69;50.76;98188.91;4994251;28;20193;-61
2022/08/11 09:29:31;;;;;;;6.85;5.45;;;;;;;28.72;49.99;98180.50;4993918;28;20182;-61
2022/08/11 09:31:58;;;;;;;7.22;5.15;;;;;;;28.80;50.64;98182.81;4993897;28;20171;-62
2022/08/11 09:34:25;;;;;;;5.35;4.85;;;;;;;28.92;50.73;98178.34;4993672;28;20705;-62
2022/08/11 09:44:45;;;;;;;5.82;4.75;;;;;;;29.15;48.85;98173.13;4994169;28;20170;-61
2022/08/11 09:45:10;;;;;;;6.65;4.85;;;;;;;29.22;49.56;98165.84;4993669;28;20259;-62
2022/08/11 09:47:37;;;;;;;10.70;5.57;;;;;;;29.26;49.02;98169.69;4993792;28;20195;-62
2022/08/11 09:50:07;;;;;;;9.05;4.90;;;;;;;29.30;49.70;98173.53;4993531;28;20214;-62
2022/08/11 09:52:39;;;;;;;5.55;5.00;;;;;;;29.36;47.93;98169.09;4993908;28;20171;-62
2022/08/11 09:55:09;;;;;;;12.88;11.52;;;;;;;29.36;48.37;98167.28;4992171;28;20178;-63
2022/08/11 10:00:28;;;;;;;7.95;4.93;;;;;;;29.13;47.80;98153.06;4993882;28;20266;-63
2022/08/11 10:02:55;;;;;;;5.82;4.95;;;;;;;29.38;47.53;98165.19;4993522;28;20191;-62
2022/08/11 10:08:08;;;;;;;11.73;10.02;;;;;;;29.69;49.10;98162.25;4993359;28;20643;-63
2022/08/11 10:10:36;;;;;;;5.25;4.72;;;;;;;29.91;46.15;98162.47;4993109;28;20174;-63
2022/08/11 10:13:06;;;;;;;5.93;4.57;;;;;;;30.09;45.09;98168.47;4993097;28;20186;-62
2022/08/11 10:15:38;;;;;;;5.00;4.55;;;;;;;30.18;46.20;98160.94;4993102;28;20175;-63
2022/08/11 10:20:56;;;;;;;5.97;5.28;;;;;;;30.08;44.70;98150.81;4993329;28;20170;-62
2022/08/11 10:28:53;;;;;;;3.97;3.67;;;;;;;30.16;42.65;98158.50;4992961;28;20640;-62
2022/08/11 10:34:07;;;;;;;4.80;4.50;;;;;;;30.35;43.72;98154.63;4992992;28;20247;-62
2022/08/11 10:36:45;;;;;;;5.22;4.30;;;;;;;30.29;44.23;98157.44;4992812;28;20191;-62
2022/08/11 10:39:15;;;;;;;7.07;5.10;;;;;;;30.31;44.81;98158.03;4993185;28;20195;-62
2022/08/11 10:44:32;;;;;;;5.60;4.40;;;;;;;30.17;44.70;98152.13;4993209;28;20163;-63
2022/08/11 10:49:43;;;;;;;5.28;4.78;;;;;;;30.28;44.01;98155.81;4993388;28;20163;-62
2022/08/11 11:00:23;;;;;;;4.18;3.75;;;;;;;30.95;40.33;98137.09;4992722;28;20170;-62
2022/08/11 11:02:50;;;;;;;5.90;3.92;;;;;;;31.18;40.46;98136.19;4992575;28;20258;-62
2022/08/11 11:05:29;;;;;;;4.95;4.43;;;;;;;31.27;39.64;98129.38;4992482;28;20190;-62
2022/08/11 11:08:51;;;;;;;4.53;4.13;;;;;;;31.45;40.34;98139.84;4992681;28;20160;-62
2022/08/11 11:10:55;;;;;;;7.03;4.18;;;;;;;31.41;39.93;98138.72;4992455;28;20186;-62
2022/08/11 11:19:02;;;;;;;8.82;4.35;;;;;;;31.63;39.20;98124.34;4973528;28;20229;-62
2022/08/11 11:21:29;;;;;;;4.28;3.83;;;;;;;31.92;38.56;98120.53;4992759;28;20163;-62
2022/08/11 11:24:18;;;;;;;5.97;3.83;;;;;;;32.18;37.08;98121.66;4992401;28;20171;-62
2022/08/11 11:26:55;;;;;;;4.93;4.30;;;;;;;32.39;37.20;98123.53;4992658;28;20544;-62
2022/08/11 11:29:30;;;;;;;4.15;3.75;;;;;;;32.38;37.00;98116.56;4995032;28;20170;-62
2022/08/11 11:32:04;;;;;;;7.97;3.70;;;;;;;32.53;36.95;98111.38;4996281;28;20655;-62
2022/08/11 11:35:14;;;;;;;5.93;4.60;;;;;;;32.75;36.74;98110.28;4995934;28;20244;-62
2022/08/11 11:37:44;;;;;;;4.18;3.78;;;;;;;32.91;35.55;98105.88;4935954;29;20208;-62
2022/08/11 11:40:12;;;;;;;4.30;3.85;;;;;;;32.78;34.86;98107.13;4988489;28;20194;-62
2022/08/11 11:42:40;;;;;;;4.35;3.50;;;;;;;32.82;35.77;98113.59;4996107;28;20175;-63
2022/08/11 11:45:07;;;;;;;6.18;3.83;;;;;;;33.06;35.36;98109.50;4995863;28;20684;-63
2022/08/11 11:47:36;;;;;;;5.50;4.20;;;;;;;32.83;34.75;98103.69;4996080;28;20606;-63
2022/08/11 11:50:03;;;;;;;5.68;3.97;;;;;;;32.44;36.33;98100.31;4995783;28;20186;-63
2022/08/11 11:52:28;;;;;;;4.07;3.63;;;;;;;32.50;35.24;98093.94;4994402;28;20179;-62
2022/08/11 11:54:56;;;;;;;5.55;3.92;;;;;;;32.47;35.21;98099.00;4995616;28;20594;-63
2022/08/11 12:03:05;;;;;;;4.47;4.07;;;;;;;32.29;36.11;98085.94;4995479;28;20218;-63
2022/08/11 12:05:34;;;;;;;10.18;3.30;;;;;;;32.52;34.40;98083.78;4995462;28;20198;-63
2022/08/11 12:08:16;;;;;;;3.55;3.30;;;;;;;32.69;34.18;98087.16;4995409;28;20171;-64
2022/08/11 12:13:39;;;;;;;4.47;3.40;;;;;;;32.77;33.55;98083.25;4995904;28;20162;-64
2022/08/11 12:13:49;;;;;;;6.13;3.08;;;;;;;32.70;31.73;98071.91;4995492;28;20652;-63
2022/08/11 12:16:17;;;;;;;5.82;3.72;;;;;;;32.85;32.70;98075.56;4995294;28;20171;-63
2022/08/11 12:18:46;;;;;;;6.32;3.35;;;;;;;32.99;32.42;98073.28;4995210;28;20202;-63
2022/08/11 12:21:14;;;;;;;4.53;3.92;;;;;;;33.18;33.05;98077.19;4995360;28;20167;-63
2022/08/11 12:29:11;;;;;;;4.75;4.05;;;;;;;33.49;31.55;98070.97;4995328;28;20194;-63
2022/08/11 12:31:39;;;;;;;3.53;3.05;;;;;;;33.32;31.87;98065.78;4995136;28;20588;-63
2022/08/11 12:34:15;;;;;;;4.40;3.60;;;;;;;33.47;31.79;98068.56;4994842;28;20298;-64
2022/08/11 12:36:52;;;;;;;3.90;3.30;;;;;;;33.85;32.40;98057.53;4995164;28;20645;-63
2022/08/11 12:53:28;;;;;;;3.28;2.83;;;;;;;34.30;28.49;98070.34;4993762;28;20206;-62
2022/08/11 12:58:50;;;;;;;4.10;2.75;;;;;;;34.66;28.35;98072.03;4994625;28;20723;-62
2022/08/11 13:06:45;;;;;;;4.85;2.58;;;;;;;35.08;27.50;98068.09;4994634;28;20691;-62
2022/08/11 13:09:11;;;;;;;5.82;2.63;;;;;;;35.18;26.84;98062.72;4993042;28;20186;-63
2022/08/11 13:14:24;;;;;;;4.43;2.80;;;;;;;35.03;26.42;98059.22;4994589;28;20263;-63
2022/08/11 13:19:34;;;;;;;5.57;2.53;;;;;;;35.89;25.65;98055.34;4994276;28;20175;-64
2022/08/11 13:22:01;;;;;;;2.38;2.28;;;;;;;36.30;25.84;98065.69;4994040;28;20175;-63
2022/08/11 13:24:27;;;;;;;3.10;2.78;;;;;;;36.62;25.69;98057.16;4994244;28;20183;-63
2022/08/11 13:26:53;;;;;;;4.40;2.55;;;;;;;36.97;24.66;98065.00;4993987;28;20259;-63
2022/08/11 13:29:25;;;;;;;3.95;3.08;;;;;;;36.77;25.62;98065.97;4993907;28;20222;-63
2022/08/11 13:31:52;;;;;;;2.83;2.63;;;;;;;36.48;26.39;98056.97;4993835;28;20163;-63
2022/08/11 13:34:20;;;;;;;4.35;2.92;;;;;;;36.34;26.90;98047.06;4993596;28;20237;-63
2022/08/11 13:36:48;;;;;;;4.53;3.00;;;;;;;36.39;26.88;98053.25;4994014;28;20570;-63
2022/08/11 13:39:14;;;;;;;3.78;3.00;;;;;;;36.35;27.36;98046.78;4993602;28;20203;-63
2022/08/11 13:41:43;;;;;;;3.35;3.08;;;;;;;36.03;26.59;98049.09;4993658;28;20711;-63
2022/08/11 13:44:12;;;;;;;3.67;2.47;;;;;;;36.29;27.47;98047.91;4993499;28;20540;-63
2022/08/11 13:46:38;;;;;;;3.25;2.95;;;;;;;36.76;26.55;98052.75;4992353;28;20183;-63
2022/08/11 13:49:07;;;;;;;10.32;3.42;;;;;;;36.74;26.79;98042.28;4993463;28;20175;-63
2022/08/11 13:51:35;;;;;;;3.50;2.65;;;;;;;36.41;25.87;98036.78;4992785;28;20179;-63
2022/08/11 13:54:07;;;;;;;3.17;2.97;;;;;;;35.87;26.18;98039.47;4993294;28;20179;-63
2022/08/11 13:56:38;;;;;;;2.97;2.75;;;;;;;35.60;27.13;98035.50;4993244;28;20216;-63
2022/08/11 13:59:06;;;;;;;4.13;2.85;;;;;;;35.35;27.68;98030.16;4993568;28;20222;-63
2022/08/11 14:01:35;;;;;;;3.30;3.05;;;;;;;34.80;28.45;98020.19;4993378;28;20644;-63
2022/08/11 14:04:23;;;;;;;5.53;3.15;;;;;;;34.46;28.25;98024.47;4993227;28;20167;-63
2022/08/11 14:06:52;;;;;;;3.42;2.70;;;;;;;34.30;28.82;98014.75;4993408;28;20159;-63
2022/08/11 14:09:24;;;;;;;14.40;3.20;;;;;;;34.12;28.86;98012.53;4991857;28;20671;-63
2022/08/11 14:14:36;;;;;;;3.78;2.72;;;;;;;34.29;29.72;98023.88;4993424;28;20171;-62
2022/08/11 14:17:07;;;;;;;3.28;3.08;;;;;;;34.25;29.66;98017.38;4993185;28;20171;-63
2022/08/11 14:19:38;;;;;;;5.53;2.70;;;;;;;34.18;29.03;98016.00;4992812;28;20735;-62
2022/08/11 14:22:07;;;;;;;2.65;2.45;;;;;;;34.41;28.75;98024.44;4992940;28;20183;-62
2022/08/11 14:24:48;;;;;;;3.50;2.17;;;;;;;34.35;29.12;98033.56;4993146;28;20179;-62
2022/08/11 14:27:15;;;;;;;2.50;2.40;;;;;;;34.36;29.03;98029.00;4992872;28;20166;-63
2022/08/11 14:29:42;;;;;;;2.70;2.50;;;;;;;34.46;29.60;98045.97;4992806;28;20214;-62
2022/08/11 14:32:13;;;;;;;2.17;2.00;;;;;;;34.24;29.49;98048.03;4992655;28;20175;-63
2022/08/11 14:34:41;;;;;;;3.67;2.35;;;;;;;33.73;29.84;98027.38;4991373;28;20660;-62
2022/08/11 14:37:11;;;;;;;3.35;2.33;;;;;;;33.40;31.11;98041.13;4992621;28;20245;-62
2022/08/11 14:39:49;;;;;;;4.85;2.17;;;;;;;32.98;31.12;98042.97;4992684;28;20258;-62
2022/08/11 14:48:03;;;;;;;3.92;1.65;;;;;;;32.47;31.55;98037.38;4992802;28;20210;-63
2022/08/11 14:50:31;;;;;;;3.60;2.35;;;;;;;32.20;32.36;98026.63;4992499;28;20606;-63
2022/08/11 14:53:09;;;;;;;2.85;2.65;;;;;;;31.91;32.83;98030.56;4992823;28;20183;-63
2022/08/11 14:58:24;;;;;;;1.77;1.63;;;;;;;31.90;32.19;98036.97;4992720;28;20197;-63
2022/08/11 15:00:53;;;;;;;1.90;1.80;;;;;;;31.74;32.74;98029.81;4992542;28;20167;-62
2022/08/11 15:03:20;;;;;;;2.45;1.52;;;;;;;31.65;32.85;98030.47;4993841;28;20614;-62
2022/08/11 15:06:03;;;;;;;2.75;2.33;;;;;;;31.59;32.68;98028.78;4996571;28;20167;-63
2022/08/11 15:14:07;;;;;;;2.00;1.80;;;;;;;31.52;32.90;98023.59;4996685;28;20170;-63
2022/08/11 15:19:20;;;;;;;3.03;2.70;;;;;;;31.01;33.67;98023.88;4996232;28;20198;-63
2022/08/11 15:24:32;;;;;;;1.90;1.65;;;;;;;30.91;34.27;98017.56;4996848;28;20163;-63
2022/08/11 15:38:05;;;;;;;4.13;1.60;;;;;;;31.00;33.47;98019.59;4996138;28;20198;-63
2022/08/11 15:46:32;;;;;;;2.08;1.90;;;;;;;30.85;33.75;98018.53;4980175;28;20186;-62
2022/08/11 15:49:02;;;;;;;1.73;1.63;;;;;;;30.91;33.52;98022.91;4996094;28;20182;-62
2022/08/11 15:51:39;;;;;;;3.92;2.00;;;;;;;30.80;33.99;98013.94;4996046;28;20250;-62
2022/08/11 15:54:10;;;;;;;1.65;1.50;;;;;;;30.80;33.92;98005.91;4994840;28;20238;-63
2022/08/11 15:56:43;;;;;;;5.22;1.45;;;;;;;30.66;34.36;98012.59;4995704;28;20288;-62
2022/08/11 16:04:48;;;;;;;2.60;1.65;;;;;;;30.16;35.33;98003.69;4995866;28;20242;-63
2022/08/11 16:07:15;;;;;;;1.77;1.65;;;;;;;29.77;35.53;98001.00;4995737;28;20175;-63
2022/08/11 16:09:45;;;;;;;1.85;1.63;;;;;;;29.88;35.82;98011.66;4995677;28;20604;-63
2022/08/11 16:12:18;;;;;;;2.60;1.70;;;;;;;29.90;36.11;98030.88;4995626;28;20254;-63
2022/08/11 16:17:41;;;;;;;1.90;1.70;;;;;;;29.91;36.04;98032.50;4995202;28;20278;-63
2022/08/11 16:20:08;;;;;;;7.53;2.08;;;;;;;29.95;35.77;98038.16;4995346;28;20221;-62
2022/08/11 16:22:46;;;;;;;7.75;1.73;;;;;;;29.86;36.10;98045.72;4995183;28;20267;-63
2022/08/11 16:25:23;;;;;;;4.90;2.17;;;;;;;29.86;35.72;98045.72;4995403;28;20169;-63
2022/08/11 16:27:59;;;;;;;2.00;1.85;;;;;;;29.79;35.98;98050.41;4993892;28;20171;-63
2022/08/11 16:30:27;;;;;;;2.75;1.77;;;;;;;29.84;35.90;98058.50;4995300;28;20155;-63
2022/08/11 16:32:53;;;;;;;2.08;1.95;;;;;;;29.72;36.07;98055.06;4994830;28;20207;-63
2022/08/11 16:40:54;;;;;;;4.60;3.67;;;;;;;29.82;36.30;98083.81;4995149;28;20551;-63
2022/08/11 16:48:58;;;;;;;7.05;2.70;;;;;;;29.60;43.87;98094.28;4995319;28;20199;-62
2022/08/11 16:51:24;;;;;;;8.32;2.90;;;;;;;29.41;44.63;98106.06;4994731;28;20175;-62
2022/08/11 16:53:50;;;;;;;5.63;2.70;;;;;;;29.21;44.60;98084.25;4994637;28;20198;-62